Weather History for KIOB - December, 2012

Change the Weather History Date:

Tuesday, December 25, 2012

  Actual Average Record
Temperature  
Mean Temperature 36 °F -  
Max Temperature 39 °F 42 °F 41 °F (2014)
Min Temperature 32 °F 25 °F 17 °F (2013)
Degree Days  
Heating Degree Days 30    
Moisture  
Dew Point 30 °F    
Average Humidity 87    
Maximum Humidity 100    
Minimum Humidity 80    
Precipitation  
Precipitation 0.00 in - - ()
Sea Level Pressure  
Sea Level Pressure 30.07 in    
Wind  
Wind Speed 8 mph (NE)    
Max Wind Speed 15 mph    
Max Gust Speed 26 mph    
Visibility 9 miles    
Events      
Averages and records for this station are not official NWS values.
T = Trace of Precipitation, MM = Missing Value Source: NWS Daily Summary

Daily Weather History Graph

Daily Weather History Graph

Search for Another Location

Airport or City:

Trip Planner

Search our weather history database for the weather conditions in past years. The results will help you decide how hot, cold, wet, or windy it might be!

Date:

Astronomy

Dec. 25, 2012 Rise Set
Actual Time 7:50 AM EST 5:22 PM EST
Civil Twilight 7:20 AM EST 5:51 PM EST
Nautical Twilight 6:47 AM EST 6:24 PM EST
Astronomical Twilight 6:15 AM EST 6:56 PM EST
Moon 3:29 PM EST (12/25) 5:22 AM EST (12/25)
Length of Visible Light 10h 30m
Length of Day
9h 31m
Waxing Gibbous, 93% of the Moon is Illuminated
Dec 25
Waxing Gibbous
Dec 28
Full
Jan 4
Last Quarter
Jan 11
New
Jan 18
First Quarter

Hourly Weather History & Observations

Time (EST) Temp. Windchill Dew Point Humidity Pressure Visibility Wind Dir Wind Speed Gust Speed Precip Events Conditions
12:15 AM 39.2 °F 34.2 °F 35.6 °F 87% 30.00 in 7.0 mi NNW 6.9 mph - N/A   Overcast
12:35 AM 39.2 °F 33.0 °F 35.6 °F 87% 30.00 in 10.0 mi NNW 9.2 mph - N/A   Overcast
12:55 AM 37.4 °F 30.8 °F 33.8 °F 87% 30.01 in 10.0 mi NW 9.2 mph - N/A   Overcast
1:15 AM 37.4 °F 30.8 °F 33.8 °F 87% 30.01 in 10.0 mi NW 9.2 mph - N/A   Overcast
1:35 AM 35.6 °F 29.9 °F 32.0 °F 87% 30.02 in 10.0 mi NNW 6.9 mph 16.1 mph N/A   Overcast
1:55 AM 35.6 °F 31.7 °F 32.0 °F 87% 30.03 in 7.0 mi NW 4.6 mph - N/A   Overcast
2:15 AM 35.6 °F 30.7 °F 32.0 °F 87% 30.03 in 7.0 mi NW 5.8 mph - N/A   Overcast
2:35 AM 35.6 °F 29.9 °F 32.0 °F 87% 30.03 in 7.0 mi NW 6.9 mph - N/A   Overcast
2:55 AM 33.8 °F 27.7 °F 32.0 °F 93% 30.04 in 7.0 mi NW 6.9 mph - N/A   Overcast
3:15 AM 33.8 °F 27.0 °F 32.0 °F 93% 30.05 in 5.0 mi North 8.1 mph - N/A   Overcast
3:35 AM 32.0 °F 25.6 °F 32.0 °F 100% 30.06 in 5.0 mi North 6.9 mph - N/A   Overcast
3:55 AM 32.0 °F 28.7 °F 32.0 °F 100% 30.06 in 5.0 mi North 3.5 mph - N/A   Overcast
4:15 AM 32.0 °F 26.4 °F 32.0 °F 100% 30.06 in 5.0 mi North 5.8 mph - N/A   Overcast
4:35 AM 32.0 °F 25.6 °F 30.2 °F 93% 30.06 in 7.0 mi North 6.9 mph - N/A   Overcast
4:55 AM 32.0 °F 25.6 °F 30.2 °F 93% 30.07 in 7.0 mi North 6.9 mph - N/A   Overcast
5:15 AM 32.0 °F 28.7 °F 30.2 °F 93% 30.08 in 7.0 mi North 3.5 mph - N/A   Overcast
5:35 AM 32.0 °F 24.2 °F 28.4 °F 87% 30.08 in 10.0 mi North 9.2 mph - N/A   Overcast
5:55 AM 32.0 °F 25.6 °F 28.4 °F 87% 30.09 in 10.0 mi North 6.9 mph - N/A   Overcast
6:15 AM 32.0 °F 28.7 °F 28.4 °F 87% 30.11 in 10.0 mi North 3.5 mph - N/A   Overcast
6:35 AM 32.0 °F 24.8 °F 28.4 °F 87% 30.10 in 10.0 mi NNE 8.1 mph - N/A   Overcast
6:55 AM 32.0 °F 25.6 °F 28.4 °F 87% 30.11 in 10.0 mi NE 6.9 mph - N/A   Overcast
7:15 AM 32.0 °F - 28.4 °F 87% 30.12 in 10.0 mi Calm Calm - N/A   Overcast
7:35 AM 32.0 °F 28.7 °F 28.4 °F 87% 30.12 in 10.0 mi NE 3.5 mph - N/A   Overcast
7:55 AM 32.0 °F 27.5 °F 26.6 °F 80% 30.12 in 10.0 mi NE 4.6 mph - N/A   Overcast
8:15 AM 32.0 °F 26.4 °F 26.6 °F 80% 30.11 in 10.0 mi NE 5.8 mph - N/A   Overcast
8:35 AM 32.0 °F 24.8 °F 28.4 °F 87% 30.10 in 10.0 mi ENE 8.1 mph - N/A   Overcast
8:55 AM 32.0 °F 28.7 °F 28.4 °F 87% 30.11 in 10.0 mi East 3.5 mph - N/A   Overcast
9:15 AM 32.0 °F 26.4 °F 26.6 °F 80% 30.12 in 10.0 mi ENE 5.8 mph - N/A   Overcast
9:35 AM 32.0 °F 25.6 °F 28.4 °F 87% 30.13 in 10.0 mi NE 6.9 mph - N/A   Overcast
9:55 AM 32.0 °F 24.2 °F 28.4 °F 87% 30.15 in 10.0 mi East 9.2 mph - N/A   Overcast
10:15 AM 32.0 °F 24.8 °F 28.4 °F 87% 30.15 in 10.0 mi ENE 8.1 mph - N/A   Overcast
10:35 AM 32.0 °F 23.6 °F 28.4 °F 87% 30.15 in 10.0 mi East 10.4 mph - N/A   Overcast
10:55 AM 32.0 °F 23.6 °F 28.4 °F 87% 30.15 in 10.0 mi ENE 10.4 mph - N/A   Overcast
11:15 AM 32.0 °F 25.6 °F 28.4 °F 87% 30.14 in 10.0 mi ENE 6.9 mph - N/A   Overcast
11:35 AM 32.0 °F 23.6 °F 28.4 °F 87% 30.12 in 10.0 mi ENE 10.4 mph - N/A   Overcast
11:55 AM 32.0 °F 23.0 °F 28.4 °F 87% 30.11 in 10.0 mi East 11.5 mph - N/A   Overcast
12:15 PM 33.8 °F 26.4 °F 30.2 °F 87% 30.12 in 10.0 mi East 9.2 mph - N/A   Overcast
12:35 PM 33.8 °F 27.7 °F 30.2 °F 87% 30.12 in 10.0 mi ENE 6.9 mph - N/A   Overcast
12:55 PM 33.8 °F 27.7 °F 30.2 °F 87% 30.12 in 7.0 mi East 6.9 mph - N/A   Overcast
1:15 PM 33.8 °F 27.7 °F 30.2 °F 87% 30.12 in 7.0 mi East 6.9 mph - N/A   Overcast
1:35 PM 33.8 °F 28.6 °F 30.2 °F 87% 30.12 in 7.0 mi ENE 5.8 mph - N/A   Overcast
1:55 PM 33.8 °F 26.4 °F 30.2 °F 87% 30.12 in 7.0 mi East 9.2 mph - N/A   Overcast
2:15 PM 33.8 °F 27.0 °F 30.2 °F 87% 30.12 in 7.0 mi ENE 8.1 mph - N/A   Overcast
2:35 PM 33.8 °F 25.8 °F 30.2 °F 87% 30.12 in 7.0 mi ENE 10.4 mph - N/A   Overcast
2:55 PM 33.8 °F 27.0 °F 32.0 °F 93% 30.12 in 7.0 mi East 8.1 mph - N/A   Overcast
3:15 PM 35.6 °F 28.6 °F 30.2 °F 81% 30.11 in 10.0 mi East 9.2 mph - N/A   Overcast
3:35 PM 35.6 °F 28.6 °F 30.2 °F 81% 30.10 in 10.0 mi East 9.2 mph - N/A   Overcast
3:55 PM 35.6 °F 28.6 °F 30.2 °F 81% 30.09 in 10.0 mi ENE 9.2 mph - N/A   Overcast
4:15 PM 35.6 °F 27.5 °F 30.2 °F 81% 30.08 in 10.0 mi East 11.5 mph 17.3 mph N/A   Overcast
4:35 PM 35.6 °F 28.6 °F 30.2 °F 81% 30.07 in 10.0 mi East 9.2 mph - N/A   Overcast
4:55 PM 35.6 °F 26.6 °F 30.2 °F 81% 30.06 in 10.0 mi East 13.8 mph - N/A   Overcast
5:15 PM 35.6 °F 28.6 °F 30.2 °F 81% 30.06 in 10.0 mi East 9.2 mph - N/A   Overcast
5:55 PM 35.6 °F 28.0 °F 30.2 °F 81% 30.07 in 10.0 mi East 10.4 mph - N/A   Overcast
6:15 PM 35.6 °F 28.6 °F 30.2 °F 81% 30.07 in 10.0 mi East 9.2 mph - N/A   Overcast
6:35 PM 35.6 °F 27.5 °F 30.2 °F 81% 30.06 in 10.0 mi East 11.5 mph - N/A   Overcast
6:55 PM 35.6 °F 28.0 °F 30.2 °F 81% 30.06 in 10.0 mi East 10.4 mph 17.3 mph N/A   Overcast
7:35 PM 33.8 °F 27.7 °F 30.2 °F 87% 30.07 in 10.0 mi East 6.9 mph - N/A   Mostly Cloudy
7:55 PM 33.8 °F 26.4 °F 30.2 °F 87% 30.07 in 10.0 mi East 9.2 mph - N/A   Overcast
8:15 PM 33.8 °F 26.4 °F 30.2 °F 87% 30.05 in 10.0 mi East 9.2 mph - N/A   Overcast
8:35 PM 33.8 °F 24.8 °F 30.2 °F 87% 30.04 in 10.0 mi East 12.7 mph - N/A   Overcast
8:55 PM 33.8 °F 24.3 °F 30.2 °F 87% 30.02 in 10.0 mi ENE 13.8 mph 18.4 mph N/A   Mostly Cloudy
9:15 PM 33.8 °F 25.8 °F 30.2 °F 87% 30.02 in 10.0 mi East 10.4 mph - N/A   Overcast
9:35 PM 33.8 °F 24.3 °F 30.2 °F 87% 30.02 in 10.0 mi East 13.8 mph 19.6 mph N/A   Overcast
9:55 PM 35.6 °F 27.1 °F 32.0 °F 87% 30.03 in 10.0 mi East 12.7 mph - N/A   Overcast
10:15 PM 35.6 °F 26.6 °F 32.0 °F 87% 30.03 in 10.0 mi East 13.8 mph 17.3 mph N/A   Overcast
10:35 PM 35.6 °F 26.6 °F 32.0 °F 87% 30.00 in 10.0 mi East 13.8 mph 18.4 mph N/A   Overcast
11:15 PM 35.6 °F 26.6 °F 32.0 °F 87% 29.97 in 10.0 mi East 13.8 mph 26.5 mph N/A   Overcast
11:35 PM 35.6 °F 26.6 °F 32.0 °F 87% 29.96 in 10.0 mi East 13.8 mph 24.2 mph N/A   Light Drizzle
11:55 PM 33.8 °F 23.9 °F 32.0 °F 93% 29.95 in 7.0 mi East 15.0 mph 23.0 mph N/A   Drizzle